Rotan, Texas
Current Conditions -  °F | °C
As of 3:35 AM on Thursday 23 Oct 2014 (Local Time) from KSWW Reporting Station
Overcast Overcast  
Wind Chill: 61°   Ceiling: 3500
Heat Index: 61°   Visibility: 10mi
Dew Point: 57°   Wind: 3mph
Humidity: 86%   Direction: 170°S
Pressure: 30.16"   Gusts: NA
Location:  32.85°N, 100.47°W
Report Text: KSWW 230835Z AUTO 17003KT 10SM OVC035 16/14 A3016 RMK AO2 T01600137
Loading
Personal Weather Stations






























Interactive Weather Map New forecast layout! Learn more

10-Day Weather Forecast

Advertisements
Track Severe Weather on mobile